mai
12

MOTOCROSS FIM – GP DU MEXIQUE : LES QUALIFICATIONS

MX1 – Pre-Qualifying Practice – Classification
Pos Nr Rider Nat. Fed. Bike Bestlaptime in lap Diff. First Diff. Prev. Tot. Laps Speed

1 222 Cairoli, Antonio ITA FMI KTM 1:44.811 5 0:00.000 0:00.000 6 53.582
2 121 Boog, Xavier FRA FFM Kawasaki 1:45.863 10 0:01.052 0:01.052 10 53.05
3 377 Pourcel, Christophe FRA FFM Kawasaki 1:46.188 3 0:01.377 0:00.325 8 52.887
4 25 Desalle, Clement BEL FMB Suzuki 1:46.222 3 0:01.411 0:00.034 8 52.87
5 24 Simpson, Shaun GBR ACU Yamaha 1:46.938 6 0:02.127 0:00.716 10 52.516
6 19 Philippaerts, David ITA FMI Yamaha 1:47.008 7 0:02.197 0:00.070 10 52.482
7 9 de Dycker, Ken BEL FMB KTM 1:47.034 3 0:02.223 0:00.026 5 52.469
8 4 Leok, Tanel EST EMF Suzuki 1:47.187 7 0:02.376 0:00.153 11 52.394
9 183 Frossard, Steven FRA FFM Yamaha 1:47.309 6 0:02.498 0:00.122 9 52.335
10 21 Paulin, Gautier FRA FFM Kawasaki 1:47.579 7 0:02.768 0:00.270 8 52.203
11 39 Guarneri, Davide ITA FMI KTM 1:47.809 7 0:02.998 0:00.230 11 52.092
12 7 Barragan, Jonathan ESP RFME Honda 1:48.056 5 0:03.245 0:00.247 12 51.973
13 11 Pourcel, Sebastien FRA FFM Kawasaki 1:48.092 6 0:03.281 0:00.036 11 51.956
14 91 Karro, Matiss LAT LAMSF KTM 1:48.469 6 0:03.658 0:00.377 10 51.775
15 22 Strijbos, Kevin BEL FMB KTM 1:49.258 5 0:04.447 0:00.789 10 51.401
16 999 Goncalves, Rui POR FMP Honda 1:49.741 7 0:04.930 0:00.483 10 51.175
17 111 Ferris, Dean AUS MA Kawasaki 1:50.274 3 0:05.463 0:00.533 7 50.928
18 42 Parker, Nathan GBR ACU KTM 1:51.566 6 0:06.755 0:01.292 8 50.338
19 63 Fernandez, Rodolfo USA FNMG Yamaha 1:52.407 1 0:07.596 0:00.841 2 49.961
20 67 Tiainen, Santtu FIN SML Kawasaki 1:53.109 4 0:08.298 0:00.702 10 49.651
21 156 Mejia, Raynear DOM FDM Kawasaki 1:53.589 1 0:08.778 0:00.480 8 49.441
22 62 Garcia, Martin MEX FMM KTM 1:58.406 1 0:13.595 0:04.817 9 47.43
23 57 Rodriguez, Samir MEX FMM Yamaha 1:59.759 8 0:14.948 0:01.353 11 46.894
24 58 Mendoza, Diego MEX FMM Honda 2:02.425 2 0:17.614 0:02.666 7 45.873
25 53 Garcia, Donovan MEX FMM Honda 2:04.013 4 0:19.202 0:01.588 10 45.286
26 54 Farfan, Mario MEX FMM Honda 2:04.024 8 0:19.213 0:00.011 11 45.282
27 56 Vazquez, Giuzepe MEX FMM Yamaha 2:06.173 1 0:21.362 0:02.149 11 44.51
28 60 Rosales, Jesus MEX FMM Yamaha 2:06.406 3 0:21.595 0:00.233 9 44.428
29 777 Bobryshev, Evgeny RUS MFR Honda 2:07.123 4 0:22.312 0:00.717 4 44.178
30 59 Guzman, Jose Luis MEX FMM Kawasaki 2:13.530 5 0:28.719 0:06.407 9 42.058

MX1 MANCHE QUALIFICATIVE
Pos Rider Nat. Fed. Team Motorcycle Total Tm. Gap1 Speed Points

1 63 FERNANDEZ, Rodolfo USA FNMG Yamaha 24:12.213 0.000 42.54
2 62 GARCIA, Martin MEX FMM KTM 24:22.066 9.853 42.25
3 156 MEJIA, Raynear DOM FDM Kawasaki 24:24.656 12.443 42.18
4 54 FARFAN, Mario MEX FMM Honda 25:39.068 1:26.855 40.14
5 53 GARCIA, Donovan MEX FMM Honda 25:51.618 1:39.405 39.81
6 56 VAZQUEZ, Giuzepe MEX FMM Yamaha 26:03.747 1:51.534 39.51
7 57 RODRIGUEZ, Samir MEX FMM Yamaha 26:04.040 1:51.827 39.50
8 58 MENDOZA, Diego MEX FMM Honda 26:19.492 2:07.279 39.11
9 60 ROSALES, Jesus MEX FMM Yamaha 24:40.780 -1 Lap 37.93
10 59 GUZMAN, Jose Luis MEX FMM Kawasaki 26:13.899 1:33.119 35.68
4 LEOK, Tanel EST EMF Rockstar Energy Suzuki WorlSd uMzXu1ki did not start
7 BARRAGAN, Jonathan ESP RFME LS Honda Racing Honda did not start
9 DE DYCKER, Ken BEL FMB Red Bull KTM Factory RacingKTM did not start
11 POURCEL, Sebastien FRA FFM CP377 Monster Energy Pro CKircauwitasaki did not start
19 PHILIPPAERTS, David ITA FMI Monster Energy Yamaha Yamaha did not start
21 PAULIN, Gautier FRA FFM Kawasaki Racing Team Kawasaki did not start
22 STRIJBOS, Kevin BEL FMB HM Plant KTM UK KTM did not start
24 SIMPSON, Shaun GBR ACU Monster Energy Yamaha Yamaha did not start
25 DESALLE, Clement BEL FMB Rockstar Energy Suzuki WorlSd uMzXu1ki did not start
39 GUARNERI, Davide ITA FMI KTM Silver Action KTM did not start
42 PARKER, Nathan GBR ACU Team STR KTM KTM did not start
67 TIAINEN, Santtu FIN SML ICE1 Racing Kawasaki did not start
91 KARRO, Matiss LAT LAMSF Team STR KTM KTM did not start
111 FERRIS, Dean AUS MA ICE1 Racing Kawasaki did not start
121 BOOG, Xavier FRA FFM Kawasaki Racing Team Kawasaki did not start
183 FROSSARD, Steven FRA FFM Monster Energy Yamaha Yamaha did not start
222 CAIROLI, Antonio ITA FMI Red Bull KTM Factory RacingKTM did not start
377 POURCEL, Christophe FRA FFM CP377 Monster Energy Pro CKircauwitasaki did not start
777 BOBRYSHEV, Evgeny RUS MFR Honda World Motocross Honda did not start
999 GONCALVES, Rui POR FMP Honda World Motocross Honda did not start

MX2 – Pre-Qualifying Practice – Classification
Pos Nr Rider Nat. Fed. Bike Bestlaptime in lap Diff. First Diff. Prev. Tot. Laps Speed

1 84 Herlings, Jeffrey NED KNMV KTM 1:47.082 8 0:00.000 0:00.000 10 52.446
2 100 Searle, Tommy GBR ACU Kawasaki 1:47.671 8 0:00.589 0:00.589 9 52.159
3 89 van Horebeek, Jeremy BEL FMB KTM 1:47.860 8 0:00.778 0:00.189 9 52.067
4 37 Teillet, Valentin FRA FFM Kawasaki 1:48.023 5 0:00.941 0:00.163 6 51.989
5 22 Ferrandis, Dylan FRA FFM Kawasaki 1:48.968 6 0:01.886 0:00.945 7 51.538
6 152 Petrov, Petar BUL BMF Suzuki 1:49.134 8 0:02.052 0:00.166 10 51.46
7 77 Lupino, Alessandro ITA FMI Husqvarna 1:49.307 8 0:02.225 0:00.173 10 51.378
8 34 Roelants, Joel BEL FMB Kawasaki 1:49.488 6 0:02.406 0:00.181 11 51.293
9 911 Tixier, Jordi FRA FFM KTM 1:49.534 8 0:02.452 0:00.046 13 51.272
10 45 Nicholls, Jake GBR ACU KTM 1:49.763 10 0:02.681 0:00.229 11 51.165
11 170 Leib, Michael USA AMA Yamaha 1:50.134 8 0:03.052 0:00.371 9 50.992
12 25 Coldenhoff, Glenn NED KNMV KTM 1:50.200 7 0:03.118 0:00.066 9 50.962
13 23 Charlier, Christophe FRA FFM Yamaha 1:50.233 8 0:03.151 0:00.033 12 50.947
14 17 Butron, Jose ESP RFME KTM 1:50.464 11 0:03.382 0:00.231 11 50.84
15 6 Anstie, Max GBR AMA Honda 1:50.959 4 0:03.877 0:00.495 11 50.613
16 151 Kullas, Harri FIN SML Suzuki 1:51.074 7 0:03.992 0:00.115 11 50.561
17 173 Guillod, Valentin SUI FMS KTM 1:51.705 10 0:04.623 0:00.631 11 50.275
18 249 Larsen, Nikolaj DEN DMU Suzuki 1:52.729 5 0:05.647 0:01.024 11 49.819
19 33 Lieber, Julien BEL FMB KTM 1:52.921 2 0:05.839 0:00.192 12 49.734
20 61 Salazar, Jetro PER FPEM KTM 1:54.176 9 0:07.094 0:01.255 9 49.187
21 230 Alanis, Ruben MEX FMM KTM 1:55.425 3 0:08.343 0:01.249 10 48.655
22 54 Ruelas, Luis MEX FMM Kawasaki 2:03.012 1 0:15.930 0:07.587 8 45.654
23 57 Oros, Carlos MEX FMM Kawasaki 2:04.838 2 0:17.756 0:01.826 4 44.986
24 53 Sanchez, Pablo MEX FMM Yamaha 2:06.359 5 0:19.277 0:01.521 9 44.445
25 793 Vieyra, Brandon MEX FMM Suzuki 2:07.326 2 0:20.244 0:00.967 9 44.107
26 55 Aguilar, Alvaro MEX FMM KTM 2:07.669 9 0:20.587 0:00.343 10 43.989
27 60 Nungaray, Erick MEX FMM Suzuki 2:18.443 3 0:31.361 0:10.774 10 40.565
28 56 Mejia, Javier MEX FMM Yamaha 2:19.663 2 0:32.581 0:01.220 10 40.211

MX2 MANCHE QUALIFICATIVE
Pos Rider Nat. Fed. Team Motorcycle Total Tm. Gap1 Speed Points

1 170 LEIB, Michael USA AMA Monster Energy Yamaha Yamaha 25:29.932 0.000 44.05
2 6 ANSTIE, Max GBR AMA Honda Gariboldi – Esta Honda 25:48.912 18.980 43.51
3 61 SALAZAR, Jetro PER FPEM KTM 26:12.870 42.938 42.85
4 54 RUELAS, Luis MEX FMM Kawasaki 25:49.891 -1 Lap 39.86
5 57 OROS, Carlos MEX FMM Kawasaki 26:41.298 51.407 38.58
6 793 VIEYRA, Brandon MEX FMM Suzuki 26:50.928 1:01.037 38.35
7 55 AGUILAR, Alvaro MEX FMM KTM 26:51.852 1:01.961 38.33
8 53 SANCHEZ, Pablo MEX FMM Yamaha 27:32.723 1:42.832 37.38
9 60 NUNGARAY, Erick MEX FMM Suzuki 26:00.287 -2 Laps 35.99
10 56 MEJIA, Javier MEX FMM Yamaha 27:38.541 1:38.254 33.86
11 230 ALANIS, Ruben MEX FMM KTM 0.000 -12 Laps 0.00
17 BUTRON, Jose ESP RFME DIGA Racing KTM KTM did not start
22 FERRANDIS, Dylan FRA FFM Rockstar Bud Racing KawasaKkiawasaki did not start
23 CHARLIER, Christophe FRA FFM Monster Energy Yamaha Yamaha did not start
25 COLDENHOFF, Glenn NED KNMV Nestaan JM Racing KTM KTM did not start
33 LIEBER, Julien BEL FMB LRT Motorsports KTM did not start
34 ROELANTS, Joel BEL FMB Floride Monster Energy Pro CKircauwitasaki did not start
37 TEILLET, Valentin FRA FFM Rockstar Bud Racing KawasaKkiawasaki did not start
45 NICHOLLS, Jake GBR ACU Nestaan JM Racing KTM KTM did not start
77 LUPINO, Alessandro ITA FMI Husqvarna-Ricci Racing Husqvarna did not start
84 HERLINGS, Jeffrey NED KNMV Red Bull KTM Factory RacingKTM did not start
89 VAN HOREBEEK, Jeremy BEL FMB Red Bull KTM Factory RacingKTM did not start
100 SEARLE, Tommy GBR ACU Floride Monster Energy Pro CKircauwitasaki did not start
151 KULLAS, Harri FIN SML Rockstar Energy Suzuki EuroSpeuzuki did not start
152 PETROV, Petar BUL BMF Rockstar Energy Suzuki EuroSpeuzuki did not start
173 GUILLOD, Valentin SUI FMS KTM Scott Racing Team KTM did not start
249 LARSEN, Nikolaj DEN DMU Standing Construct Suzuki RaScuinzgu MkiX2 did not start
911 TIXIER, Jordi FRA FFM Red Bull KTM Factory RacingKTM did not start

A voir aussi :

Le commentaires sont fermés.